Flight Track Log - Related Links

Times and Time Zones

All times are in EST time to prevent confusion due to time zone crossing. See the N498QS flight status page for this flight to view local times or setup timezone preferences in your user account.

Time Position Orientation Groundspeed Altitude Reporting Facility
EST Latitude Longitude Course Direction KTS MPH feet Rate Location/Type
Wed 12:14:24 PM 41.4306 -70.5739 329° Northwest 204 235 2,400  Level Boston Center
Wed 12:15:24 PM 41.4833 -70.6167 329° Northwest 184 212 5,400 3,550 Climbing Boston Center
Wed 12:16:24 PM 41.4994 -70.7217 282° West 199 229 9,500 2,650 Climbing Boston Center
Wed 12:17:24 PM 41.5322 -70.8178 295° West 280 322 10,700 2,100 Climbing Boston Center
Wed 12:18:24 PM 41.5714 -70.9472 292° West 337 388 13,700 2,700 Climbing Boston Center
Wed 12:19:24 PM 41.6167 -71.0544 299° West 364 419 16,100 1,200 Climbing Boston Center
Wed 12:20:24 PM 41.6744 -71.1894 300° West 380 437 16,100  Level Boston Center
Wed 12:21:24 PM 41.7236 -71.2969 302° West 380 437 16,100  Level Boston Center
Wed 12:22:24 PM 41.7728 -71.4381 295° West 374 430 16,100  Level Boston Center
Wed 12:23:24 PM 41.7906 -71.5658 281° West 374 430 16,100  Level Boston Center
Wed 12:24:24 PM 41.8103 -71.7075 281° West 390 449 16,100  Level Boston Center
Wed 12:25:24 PM 41.8319 -71.8606 281° West 390 449 16,100  Level Boston Center
Wed 12:26:24 PM 41.8472 -71.9914 279° West 390 449 16,100  Level Boston Center
Wed 12:27:24 PM 41.8686 -72.1447 281° West 390 449 16,100  Level Boston Center
Wed 12:28:24 PM 41.8856 -72.2728 280° West 390 449 16,100  Level Boston Center
Wed 12:29:24 PM 41.9064 -72.4233 281° West 390 449 16,100  Level Boston Center
Wed 12:30:24 PM 41.9231 -72.5517 280° West 390 449 16,100  Level Boston Center
Wed 12:31:24 PM 41.9228 -72.7081 270° West 390 449 16,100 -500 Level Boston Center
Wed 12:32:24 PM 41.8828 -72.8361 247° West 380 437 15,100 -1,250 Descending Boston Center
Wed 12:33:24 PM 41.8303 -72.9556 239° Southwest 368 423 13,600 -1,500 Descending Boston Center
Wed 12:34:24 PM 41.7817 -73.0747 241° Southwest 362 417 12,100 -750 Descending Boston Center
Wed 12:35:24 PM 41.7331 -73.1911 241° Southwest 368 423 12,100  Level Boston Center
Wed 12:36:24 PM 41.6844 -73.3047 240° Southwest 368 423 12,100 -300 Level Boston Center
Wed 12:37:24 PM 41.6333 -73.4206 239° Southwest 362 417 11,500 -850 Descending Boston Center
Wed 12:38:24 PM 41.5908 -73.5225 241° Southwest 355 409 10,400 -1,310 Descending Boston Center
Wed 12:39:46 PM 41.5333 -73.6500 239° Southwest 287 330 8,400 -1,479 Descending New York TRACON
Wed 12:40:46 PM 41.5000 -73.7500 246° West 272 313 6,900 -1,632 Descending New York TRACON
Wed 12:41:40 PM 41.4500 -73.8167 225° Southwest 278 320 5,300 -1,789 Descending New York TRACON
Wed 12:42:40 PM 41.3833 -73.8167 180° South 267 307 3,500 -1,095 Descending New York TRACON
Wed 12:43:46 PM 41.3167 -73.7667 151° Southeast 257 296 3,000 -250 Descending New York TRACON
Wed 12:44:40 PM 41.2500 -73.7167 151° Southeast 252 290 3,000  Level New York TRACON
Wed 12:45:40 PM 41.2000 -73.6667 143° Southeast 255 293 3,000  Level New York TRACON
Wed 12:46:46 PM 41.1333 -73.6167 151° Southeast 256 295 3,000  Level New York TRACON
Wed 12:47:40 PM 41.0833 -73.5667 143° Southeast 252 290 3,000 -105 Level New York TRACON
Wed 12:48:40 PM 41.0167 -73.5500 169° South 245 282 2,800 -500 Descending New York TRACON
Wed 12:49:40 PM 40.9833 -73.6167 236° Southwest 226 260 2,000 -600 Descending New York TRACON
Wed 12:50:40 PM 41.0167 -73.6667 311° West 173 199 1,600 -650 Descending New York TRACON
Wed 12:51:40 PM 41.0500 -73.6833 339° North 147 169 700 -900 Descending New York TRACON
Wed 12:53:00 PM 41.0667 -73.7000 294° West  Level FlightAware Approximate
Wed 01:00:00 PM 41.0669 -73.7076 294° West  Level Estimated
Wed 01:01:00 PM 41.0667 -73.7000 294° West  Level FlightAware Approximate

Login

Don't have an account? Register now (free) for customized features, flight alerts, and more!